Time;durP1;ratioP1;P1;durP2;ratioP2;P2;SDS_P1;SDS_P2;PMS_P1;PMS_P2;Temp;Humidity;BMP_temperature;BMP_pressure;BME280_temperature;BME280_humidity;BME280_pressure;Samples;Min_cycle;Max_cycle;Signal;HPM_P1;HPM_P2
2022/02/21 00:00:09;;;;;;;25.23;21.65;;;;;;;;;;5012338;28;20048;-74
2022/02/21 00:02:35;;;;;;;28.05;21.67;;;;;;;;;;5009259;28;20057;-73
2022/02/21 00:05:01;;;;;;;26.17;20.88;;;;;;;;;;5015168;28;20021;-73
2022/02/21 00:07:30;;;;;;;26.58;20.38;;;;;;;;;;5033559;28;20018;-73
2022/02/21 00:09:57;;;;;;;23.98;19.25;;;;;;;;;;5017910;28;20502;-73
2022/02/21 00:12:24;;;;;;;26.50;20.95;;;;;;;;;;5015865;28;20064;-73
2022/02/21 00:14:50;;;;;;;27.80;19.80;;;;;;;;;;5018498;28;20029;-74
2022/02/21 00:17:16;;;;;;;26.13;20.20;;;;;;;;;;5023871;28;20045;-73
2022/02/21 00:19:42;;;;;;;22.65;18.98;;;;;;;;;;5016961;28;20030;-74
2022/02/21 00:22:08;;;;;;;22.67;17.38;;;;;;;;;;5015679;28;20565;-73
2022/02/21 00:24:38;;;;;;;23.00;18.48;;;;;;;;;;5018014;28;20102;-73
2022/02/21 00:27:06;;;;;;;23.30;18.08;;;;;;;;;;5010929;28;20475;-72
2022/02/21 00:29:34;;;;;;;24.17;18.67;;;;;;;;;;5018788;28;20598;-73
2022/02/21 00:32:04;;;;;;;21.60;17.48;;;;;;;;;;5016414;28;20022;-74
2022/02/21 00:34:31;;;;;;;23.13;18.30;;;;;;;;;;5015522;28;20025;-74
2022/02/21 00:36:59;;;;;;;24.90;18.95;;;;;;;;;;5017374;28;20080;-73
2022/02/21 00:39:25;;;;;;;23.35;19.27;;;;;;;;;;5014672;28;20078;-74
2022/02/21 00:41:51;;;;;;;24.95;18.48;;;;;;;;;;5015563;28;20041;-73
2022/02/21 00:44:17;;;;;;;20.58;16.38;;;;;;;;;;5016089;28;20475;-73
2022/02/21 00:46:43;;;;;;;20.38;16.13;;;;;;;;;;5026442;28;20383;-74
2022/02/21 00:49:09;;;;;;;20.42;16.00;;;;;;;;;;5015862;28;20021;-73
2022/02/21 00:51:35;;;;;;;18.55;14.93;;;;;;;;;;5017452;28;20106;-73
2022/02/21 00:54:03;;;;;;;17.70;14.05;;;;;;;;;;5015313;28;20022;-74
2022/02/21 00:56:29;;;;;;;18.48;14.23;;;;;;;;;;5011445;28;20146;-73
2022/02/21 00:58:56;;;;;;;18.42;14.90;;;;;;;;;;5016564;28;20037;-73
2022/02/21 01:01:22;;;;;;;21.20;15.88;;;;;;;;;;4999300;28;20030;-74
2022/02/21 01:04:04;;;;;;;19.88;16.23;;;;;;;;;;5020507;28;20455;-73
2022/02/21 01:06:30;;;;;;;21.92;17.27;;;;;;;;;;5025089;28;20026;-74
2022/02/21 01:08:56;;;;;;;22.55;18.60;;;;;;;;;;5017271;28;20026;-73
2022/02/21 01:11:22;;;;;;;22.58;16.48;;;;;;;;;;5014697;28;20026;-74
2022/02/21 01:13:48;;;;;;;21.88;17.25;;;;;;;;;;5015678;28;20537;-73
2022/02/21 01:16:14;;;;;;;21.92;17.27;;;;;;;;;;5012363;28;20042;-73
2022/02/21 01:18:40;;;;;;;23.85;17.83;;;;;;;;;;5014847;28;20101;-74
2022/02/21 01:21:08;;;;;;;21.77;17.85;;;;;;;;;;5013878;28;20064;-74
2022/02/21 01:23:39;;;;;;;21.38;17.33;;;;;;;;;;5014924;28;20018;-73
2022/02/21 01:26:05;;;;;;;22.98;17.85;;;;;;;;;;5007713;28;20017;-73
2022/02/21 01:28:31;;;;;;;24.92;18.55;;;;;;;;;;5015624;28;20025;-74
2022/02/21 01:30:57;;;;;;;24.20;18.35;;;;;;;;;;5010651;28;20040;-73
2022/02/21 01:33:24;;;;;;;22.40;18.02;;;;;;;;;;5014754;28;20021;-73
2022/02/21 01:35:50;;;;;;;24.52;18.77;;;;;;;;;;5016523;28;20022;-74
2022/02/21 01:38:16;;;;;;;21.35;17.55;;;;;;;;;;5014332;28;20045;-73
2022/02/21 01:40:42;;;;;;;23.90;18.55;;;;;;;;;;5014428;28;20064;-73
2022/02/21 01:43:09;;;;;;;20.60;16.63;;;;;;;;;;5017458;28;20034;-73
2022/02/21 01:45:36;;;;;;;21.75;16.77;;;;;;;;;;5008937;28;20203;-75
2022/02/21 01:48:05;;;;;;;22.60;16.95;;;;;;;;;;5015692;28;20399;-74
2022/02/21 01:50:31;;;;;;;21.85;17.08;;;;;;;;;;5014858;28;20494;-74
2022/02/21 01:52:58;;;;;;;21.40;16.35;;;;;;;;;;5010147;28;20018;-73
2022/02/21 01:55:27;;;;;;;19.00;15.88;;;;;;;;;;5015012;28;20025;-75
2022/02/21 01:57:55;;;;;;;20.85;16.08;;;;;;;;;;5014033;28;20129;-73
2022/02/21 02:00:22;;;;;;;26.73;19.38;;;;;;;;;;5014575;28;20149;-73
2022/02/21 02:02:48;;;;;;;22.83;17.25;;;;;;;;;;5016481;28;20494;-74
2022/02/21 02:05:15;;;;;;;22.17;16.67;;;;;;;;;;5010113;28;20018;-73
2022/02/21 02:07:42;;;;;;;19.17;13.98;;;;;;;;;;5020521;28;20033;-74
2022/02/21 02:10:08;;;;;;;15.00;12.10;;;;;;;;;;5007167;28;20045;-73
2022/02/21 02:12:38;;;;;;;14.98;10.93;;;;;;;;;;5006549;28;20533;-74
2022/02/21 02:15:04;;;;;;;11.80;9.23;;;;;;;;;;5013891;28;20088;-73
2022/02/21 02:17:31;;;;;;;13.02;9.55;;;;;;;;;;5005383;28;20030;-73
2022/02/21 02:19:57;;;;;;;15.68;11.18;;;;;;;;;;5013966;28;20467;-74
2022/02/21 02:22:27;;;;;;;16.60;12.32;;;;;;;;;;5013210;28;20038;-74
2022/02/21 02:24:53;;;;;;;16.65;13.07;;;;;;;;;;4997661;28;20028;-73
2022/02/21 02:27:20;;;;;;;18.92;15.40;;;;;;;;;;5015793;28;20078;-74
2022/02/21 02:29:49;;;;;;;24.88;17.27;;;;;;;;;;5012183;28;20258;-72
2022/02/21 02:32:16;;;;;;;22.33;16.80;;;;;;;;;;4997092;28;20044;-74
2022/02/21 02:34:43;;;;;;;25.38;17.83;;;;;;;;;;5013933;28;20054;-74
2022/02/21 02:37:09;;;;;;;19.70;14.82;;;;;;;;;;5013498;28;20026;-73
2022/02/21 02:39:36;;;;;;;14.88;12.40;;;;;;;;;;5013186;28;20053;-74
2022/02/21 02:42:09;;;;;;;15.15;10.80;;;;;;;;;;5014550;28;20045;-73
2022/02/21 02:44:36;;;;;;;13.90;10.10;;;;;;;;;;5015494;28;20387;-73
2022/02/21 02:47:09;;;;;;;13.50;10.00;;;;;;;;;;5013541;28;20475;-72
2022/02/21 02:49:35;;;;;;;23.77;18.50;;;;;;;;;;5015524;28;20018;-74
2022/02/21 02:52:03;;;;;;;26.45;17.98;;;;;;;;;;5012993;28;20766;-73
2022/02/21 02:54:29;;;;;;;22.95;17.65;;;;;;;;;;5013228;28;20018;-73
2022/02/21 02:56:56;;;;;;;25.17;19.02;;;;;;;;;;5011765;28;20025;-74
2022/02/21 02:59:25;;;;;;;23.08;17.80;;;;;;;;;;5014266;28;20033;-75
2022/02/21 03:01:51;;;;;;;23.92;17.35;;;;;;;;;;5014770;28;20037;-73
2022/02/21 03:04:17;;;;;;;23.00;17.13;;;;;;;;;;5016529;28;20025;-74
2022/02/21 03:06:43;;;;;;;25.35;18.15;;;;;;;;;;5020309;28;20447;-73
2022/02/21 03:09:10;;;;;;;23.08;17.50;;;;;;;;;;5013074;28;20030;-73
2022/02/21 03:11:36;;;;;;;24.30;17.85;;;;;;;;;;5012907;28;20022;-74
2022/02/21 03:14:03;;;;;;;20.75;15.88;;;;;;;;;;5013667;28;20049;-74
2022/02/21 03:16:29;;;;;;;14.25;11.13;;;;;;;;;;5013185;28;20034;-74
2022/02/21 03:18:56;;;;;;;16.17;11.77;;;;;;;;;;5013104;28;20506;-73
2022/02/21 03:21:23;;;;;;;19.58;12.27;;;;;;;;;;5015523;28;20045;-74
2022/02/21 03:23:50;;;;;;;16.48;12.27;;;;;;;;;;5018215;28;20053;-74
2022/02/21 03:26:16;;;;;;;16.50;12.13;;;;;;;;;;5013297;28;20022;-73
2022/02/21 03:28:42;;;;;;;18.20;12.23;;;;;;;;;;5013243;28;20032;-73
2022/02/21 03:31:08;;;;;;;10.27;7.88;;;;;;;;;;5012414;28;20038;-74
2022/02/21 03:33:34;;;;;;;11.00;7.85;;;;;;;;;;5013038;28;20034;-74
2022/02/21 03:36:01;;;;;;;9.07;6.53;;;;;;;;;;5016584;28;20044;-74
2022/02/21 03:38:29;;;;;;;12.45;8.30;;;;;;;;;;5004330;28;20099;-75
2022/02/21 03:40:55;;;;;;;14.15;8.63;;;;;;;;;;4983486;28;20400;-73
2022/02/21 03:43:21;;;;;;;14.18;10.43;;;;;;;;;;5013160;28;20143;-72
2022/02/21 03:45:47;;;;;;;11.80;7.65;;;;;;;;;;5012436;28;20037;-74
2022/02/21 03:48:15;;;;;;;21.63;11.95;;;;;;;;;;5012654;28;21276;-74
2022/02/21 03:50:41;;;;;;;14.60;10.20;;;;;;;;;;5012601;28;20471;-74
2022/02/21 03:53:13;;;;;;;16.83;11.50;;;;;;;;;;5012585;28;20026;-74
2022/02/21 03:55:42;;;;;;;14.88;10.85;;;;;;;;;;5017340;28;20056;-73
2022/02/21 03:58:08;;;;;;;17.15;11.80;;;;;;;;;;5009773;28;20088;-73
2022/02/21 04:00:34;;;;;;;17.17;12.75;;;;;;;;;;5012826;28;20109;-73
2022/02/21 04:03:01;;;;;;;13.95;9.90;;;;;;;;;;5016140;28;20096;-73
2022/02/21 04:05:31;;;;;;;12.30;8.02;;;;;;;;;;5013142;28;20514;-74
2022/02/21 04:07:57;;;;;;;11.32;8.80;;;;;;;;;;5018588;28;20026;-75
2022/02/21 04:10:23;;;;;;;10.63;8.75;;;;;;;;;;5012287;28;20044;-73
2022/02/21 04:12:49;;;;;;;15.73;9.25;;;;;;;;;;5013011;28;20040;-73
2022/02/21 04:15:15;;;;;;;12.18;9.18;;;;;;;;;;5018774;28;20026;-72
2022/02/21 04:17:42;;;;;;;14.90;10.25;;;;;;;;;;5010566;28;20045;-73
2022/02/21 04:20:10;;;;;;;12.75;8.90;;;;;;;;;;5012507;28;20037;-73
2022/02/21 04:22:36;;;;;;;15.35;9.60;;;;;;;;;;5014172;28;20068;-76
2022/02/21 04:25:05;;;;;;;12.18;8.00;;;;;;;;;;5008020;28;20030;-73
2022/02/21 04:27:38;;;;;;;12.02;9.05;;;;;;;;;;5012439;28;20022;-73
2022/02/21 04:30:05;;;;;;;12.93;9.32;;;;;;;;;;5013788;28;20065;-74
2022/02/21 04:32:31;;;;;;;12.07;8.90;;;;;;;;;;5011535;28;20018;-73
2022/02/21 04:34:57;;;;;;;14.35;10.30;;;;;;;;;;5012665;28;20038;-74
2022/02/21 04:37:25;;;;;;;13.85;9.05;;;;;;;;;;5011542;28;20101;-75
2022/02/21 04:39:52;;;;;;;11.15;8.38;;;;;;;;;;5012693;28;20164;-74
2022/02/21 04:42:20;;;;;;;10.35;8.00;;;;;;;;;;4987632;28;20070;-73
2022/02/21 04:44:46;;;;;;;22.13;13.32;;;;;;;;;;5012275;28;20050;-74
2022/02/21 04:47:12;;;;;;;23.08;18.35;;;;;;;;;;5012028;28;20416;-73
2022/02/21 04:49:38;;;;;;;12.48;9.02;;;;;;;;;;5012270;28;20487;-73
2022/02/21 04:52:05;;;;;;;10.40;7.10;;;;;;;;;;5015889;28;20034;-75
2022/02/21 04:54:31;;;;;;;8.70;6.82;;;;;;;;;;5016096;28;20025;-75
2022/02/21 04:56:57;;;;;;;10.73;7.72;;;;;;;;;;5015666;28;20033;-74
2022/02/21 04:59:23;;;;;;;10.55;7.28;;;;;;;;;;5012759;28;20018;-74
2022/02/21 05:01:51;;;;;;;12.68;8.82;;;;;;;;;;5007422;28;20080;-74
2022/02/21 05:04:17;;;;;;;13.70;9.60;;;;;;;;;;5012793;28;20147;-73
2022/02/21 05:06:43;;;;;;;14.63;10.13;;;;;;;;;;5015678;28;20076;-74
2022/02/21 05:09:09;;;;;;;13.85;9.75;;;;;;;;;;5016283;28;20029;-74
2022/02/21 05:11:35;;;;;;;12.88;8.73;;;;;;;;;;5015779;28;20025;-73
2022/02/21 05:14:04;;;;;;;19.58;12.75;;;;;;;;;;5015719;28;20438;-73
2022/02/21 05:16:30;;;;;;;18.73;13.50;;;;;;;;;;5015077;28;20149;-73
2022/02/21 05:19:02;;;;;;;18.63;11.68;;;;;;;;;;5016013;28;20056;-73
2022/02/21 05:21:28;;;;;;;15.65;11.35;;;;;;;;;;5015256;28;20033;-76
2022/02/21 05:23:55;;;;;;;14.25;10.90;;;;;;;;;;5015607;28;20024;-74
2022/02/21 05:26:24;;;;;;;11.20;8.27;;;;;;;;;;5015347;28;20022;-76
2022/02/21 05:28:55;;;;;;;9.23;6.25;;;;;;;;;;4994593;28;20034;-74
2022/02/21 05:31:35;;;;;;;10.57;6.10;;;;;;;;;;5014727;28;20034;-72
2022/02/21 05:34:08;;;;;;;8.95;6.95;;;;;;;;;;5000542;28;20042;-71
2022/02/21 05:36:37;;;;;;;16.48;7.00;;;;;;;;;;5005284;28;20383;-76
2022/02/21 05:39:03;;;;;;;11.02;5.95;;;;;;;;;;5023544;28;20125;-76
2022/02/21 05:41:29;;;;;;;7.18;5.40;;;;;;;;;;5022138;28;20034;-75
2022/02/21 05:43:55;;;;;;;8.40;5.18;;;;;;;;;;5020334;28;20034;-73
2022/02/21 05:46:21;;;;;;;7.18;5.18;;;;;;;;;;4997420;28;20037;-74
2022/02/21 05:48:47;;;;;;;7.72;5.10;;;;;;;;;;4999280;28;20487;-78
2022/02/21 05:51:13;;;;;;;6.78;5.30;;;;;;;;;;5013499;28;20032;-72
2022/02/21 05:53:44;;;;;;;12.27;7.97;;;;;;;;;;5002363;28;20038;-73
2022/02/21 05:56:10;;;;;;;15.48;8.55;;;;;;;;;;5014737;28;20040;-75
2022/02/21 05:58:38;;;;;;;17.02;9.93;;;;;;;;;;5017306;28;20022;-77
2022/02/21 06:01:04;;;;;;;13.57;9.93;;;;;;;;;;5016602;28;20054;-75
2022/02/21 06:03:32;;;;;;;12.35;7.80;;;;;;;;;;5031615;28;20034;-79
2022/02/21 06:06:02;;;;;;;13.25;8.18;;;;;;;;;;4997872;28;20022;-76
2022/02/21 06:08:58;;;;;;;15.57;8.35;;;;;;;;;;5007898;28;20030;-78
2022/02/21 06:11:30;;;;;;;15.55;8.73;;;;;;;;;;4913254;29;20036;-76
2022/02/21 06:14:17;;;;;;;24.17;12.77;;;;;;;;;;4916592;29;20040;-77
2022/02/21 06:19:28;;;;;;;15.70;8.60;;;;;;;;;;5041082;23;20053;-75
2022/02/21 06:21:55;;;;;;;11.85;7.55;;;;;;;;;;4981792;28;20440;-72
2022/02/21 06:24:23;;;;;;;15.10;8.27;;;;;;;;;;4995665;28;20392;-73
2022/02/21 06:26:49;;;;;;;13.55;8.93;;;;;;;;;;4992182;28;20069;-74
2022/02/21 06:29:15;;;;;;;15.65;8.20;;;;;;;;;;4993846;28;20080;-74
2022/02/21 06:31:41;;;;;;;12.02;8.70;;;;;;;;;;4992618;28;20029;-73
2022/02/21 06:34:07;;;;;;;14.77;9.05;;;;;;;;;;4976157;28;20023;-73
2022/02/21 06:36:34;;;;;;;12.15;8.48;;;;;;;;;;4993402;28;20029;-73
2022/02/21 06:39:00;;;;;;;14.15;8.23;;;;;;;;;;4993058;28;20029;-74
2022/02/21 06:41:26;;;;;;;10.00;7.20;;;;;;;;;;4993239;28;20542;-73
2022/02/21 06:43:52;;;;;;;9.32;6.85;;;;;;;;;;4993414;28;20061;-73
2022/02/21 06:46:18;;;;;;;9.25;6.72;;;;;;;;;;4989758;28;20077;-74
2022/02/21 06:48:45;;;;;;;12.63;9.00;;;;;;;;;;4991694;28;20117;-74
2022/02/21 06:51:11;;;;;;;16.65;12.57;;;;;;;;;;4992733;28;20030;-75
2022/02/21 06:53:37;;;;;;;14.60;9.48;;;;;;;;;;4973641;28;20030;-75
2022/02/21 06:56:03;;;;;;;17.30;12.15;;;;;;;;;;4993209;28;20034;-74
2022/02/21 06:58:29;;;;;;;18.38;12.52;;;;;;;;;;4993122;28;20170;-75
2022/02/21 07:00:55;;;;;;;19.08;11.98;;;;;;;;;;4974493;28;20027;-75
2022/02/21 07:03:22;;;;;;;15.95;10.57;;;;;;;;;;4977343;28;20081;-75
2022/02/21 07:05:48;;;;;;;14.70;10.18;;;;;;;;;;4986695;28;20027;-75
2022/02/21 07:08:14;;;;;;;15.25;9.70;;;;;;;;;;4991927;28;20041;-73
2022/02/21 07:10:40;;;;;;;18.00;13.50;;;;;;;;;;4978193;28;20124;-73
2022/02/21 07:13:06;;;;;;;13.43;9.45;;;;;;;;;;4972629;28;20030;-71
2022/02/21 07:15:32;;;;;;;17.10;10.02;;;;;;;;;;4972848;28;20531;-73
2022/02/21 07:17:59;;;;;;;22.55;9.93;;;;;;;;;;4991683;28;20053;-74
2022/02/21 07:20:25;;;;;;;20.10;12.38;;;;;;;;;;4992335;28;20058;-72
2022/02/21 07:22:52;;;;;;;20.92;13.10;;;;;;;;;;4993064;28;20056;-74
2022/02/21 07:25:18;;;;;;;19.48;11.10;;;;;;;;;;4974705;28;20092;-73
2022/02/21 07:27:51;;;;;;;20.38;11.60;;;;;;;;;;4991597;28;20041;-77
2022/02/21 07:30:19;;;;;;;16.50;9.82;;;;;;;;;;4990386;28;20031;-73
2022/02/21 07:32:46;;;;;;;22.48;14.32;;;;;;;;;;4977964;28;20150;-73
2022/02/21 07:35:12;;;;;;;29.98;18.50;;;;;;;;;;4989484;28;20034;-74
2022/02/21 07:37:41;;;;;;;19.13;9.98;;;;;;;;;;4991191;28;20027;-77
2022/02/21 07:40:11;;;;;;;13.98;8.85;;;;;;;;;;4992316;28;20022;-81
2022/02/21 07:42:39;;;;;;;19.35;13.75;;;;;;;;;;4990990;28;20529;-80
2022/02/21 07:45:06;;;;;;;19.95;11.65;;;;;;;;;;4972272;28;20034;-75
2022/02/21 07:47:32;;;;;;;26.08;8.20;;;;;;;;;;4990898;28;20038;-75
2022/02/21 07:49:58;;;;;;;20.80;7.70;;;;;;;;;;4991698;28;20023;-74
2022/02/21 07:52:25;;;;;;;20.00;6.47;;;;;;;;;;4991904;28;20137;-75
2022/02/21 07:54:51;;;;;;;20.92;6.93;;;;;;;;;;4985075;28;20046;-78
2022/02/21 07:57:17;;;;;;;12.55;6.10;;;;;;;;;;4980111;28;20049;-74
2022/02/21 07:59:43;;;;;;;16.00;6.70;;;;;;;;;;4975982;28;20472;-76
2022/02/21 08:02:09;;;;;;;12.70;7.00;;;;;;;;;;4991223;28;20550;-74
2022/02/21 08:04:35;;;;;;;7.22;5.40;;;;;;;;;;4991108;28;20041;-80
2022/02/21 08:07:02;;;;;;;8.48;4.95;;;;;;;;;;4991115;28;20030;-76
2022/02/21 08:09:28;;;;;;;20.95;12.30;;;;;;;;;;4969990;28;20030;-76
2022/02/21 08:11:54;;;;;;;17.08;6.30;;;;;;;;;;4989379;28;20030;-78
2022/02/21 08:14:22;;;;;;;14.30;5.20;;;;;;;;;;4979629;28;20035;-74
2022/02/21 08:16:48;;;;;;;15.32;5.40;;;;;;;;;;4985479;28;20049;-78
2022/02/21 08:19:14;;;;;;;9.85;5.07;;;;;;;;;;4989705;28;20038;-77
2022/02/21 08:21:40;;;;;;;21.00;12.38;;;;;;;;;;4990865;28;20029;-77
2022/02/21 08:24:09;;;;;;;20.88;7.25;;;;;;;;;;4973466;28;20101;-79
2022/02/21 08:26:35;;;;;;;13.63;5.22;;;;;;;;;;4976384;28;20025;-80
2022/02/21 08:29:01;;;;;;;19.38;5.75;;;;;;;;;;4994779;28;20483;-75
2022/02/21 08:31:27;;;;;;;10.50;5.63;;;;;;;;;;4991558;28;20029;-78
2022/02/21 08:33:53;;;;;;;13.57;5.30;;;;;;;;;;4983551;28;20045;-80
2022/02/21 08:36:19;;;;;;;6.05;4.60;;;;;;;;;;4993744;28;20034;-72
2022/02/21 08:38:48;;;;;;;6.47;3.90;;;;;;;;;;4991253;28;20038;-78
2022/02/21 08:41:14;;;;;;;12.60;4.35;;;;;;;;;;4984633;28;20034;-74
2022/02/21 08:43:40;;;;;;;10.23;4.30;;;;;;;;;;4979790;28;20133;-74
2022/02/21 08:46:06;;;;;;;18.98;5.32;;;;;;;;;;4994261;28;20477;-75
2022/02/21 08:48:32;;;;;;;11.30;5.63;;;;;;;;;;4994171;28;20038;-75
2022/02/21 08:50:58;;;;;;;11.85;7.18;;;;;;;;;;4995577;28;20033;-74
2022/02/21 08:53:24;;;;;;;13.98;6.03;;;;;;;;;;4976069;28;20018;-74
2022/02/21 08:55:50;;;;;;;14.20;7.43;;;;;;;;;;4976610;28;20069;-74
2022/02/21 08:58:17;;;;;;;13.50;7.53;;;;;;;;;;4994512;28;20022;-73
2022/02/21 09:00:43;;;;;;;17.42;8.25;;;;;;;;;;4994549;28;20481;-75
2022/02/21 09:03:10;;;;;;;15.45;7.40;;;;;;;;;;4991214;28;20034;-79
2022/02/21 09:05:36;;;;;;;11.65;6.25;;;;;;;;;;4995767;28;20015;-85
2022/02/21 09:08:02;;;;;;;10.60;6.47;;;;;;;;;;4993445;28;20129;-78
2022/02/21 09:10:30;;;;;;;26.67;7.95;;;;;;;;;;4994643;28;20026;-75
2022/02/21 09:12:56;;;;;;;12.68;6.20;;;;;;;;;;4993270;28;20026;-72
2022/02/21 09:15:22;;;;;;;8.38;5.00;;;;;;;;;;4997571;28;20046;-74
2022/02/21 09:17:48;;;;;;;10.88;5.63;;;;;;;;;;5000027;28;20125;-74
2022/02/21 09:20:15;;;;;;;11.10;6.78;;;;;;;;;;4988353;28;20035;-73
2022/02/21 09:22:42;;;;;;;12.73;6.13;;;;;;;;;;4981872;28;20389;-72
2022/02/21 09:25:17;;;;;;;14.55;7.32;;;;;;;;;;5001844;28;20042;-72
2022/02/21 09:27:43;;;;;;;14.55;7.15;;;;;;;;;;4982109;28;20447;-73
2022/02/21 09:30:10;;;;;;;13.45;8.07;;;;;;;;;;4993558;28;20078;-73
2022/02/21 09:32:36;;;;;;;24.17;7.72;;;;;;;;;;5001384;28;20019;-76
2022/02/21 09:35:03;;;;;;;20.25;11.40;;;;;;;;;;4992291;28;20027;-73
2022/02/21 09:37:29;;;;;;;25.98;14.02;;;;;;;;;;4997154;28;20029;-72
2022/02/21 09:39:55;;;;;;;22.95;15.10;;;;;;;;;;5000265;28;20049;-73
2022/02/21 09:42:22;;;;;;;13.77;6.57;;;;;;;;;;5000110;28;20069;-73
2022/02/21 09:44:48;;;;;;;17.60;6.25;;;;;;;;;;4997982;28;20081;-75
2022/02/21 09:47:16;;;;;;;9.68;5.20;;;;;;;;;;4978852;28;20039;-72
2022/02/21 09:49:42;;;;;;;25.88;12.95;;;;;;;;;;4996846;28;20030;-73
2022/02/21 09:52:09;;;;;;;11.73;6.57;;;;;;;;;;4996104;28;20026;-77
2022/02/21 09:54:39;;;;;;;16.80;9.70;;;;;;;;;;4998261;28;20058;-76
2022/02/21 09:57:05;;;;;;;18.65;10.65;;;;;;;;;;4992672;28;20031;-74
2022/02/21 09:59:31;;;;;;;17.00;7.57;;;;;;;;;;4994327;28;20026;-73
2022/02/21 10:01:57;;;;;;;15.70;9.05;;;;;;;;;;4992407;28;20503;-73
2022/02/21 10:04:24;;;;;;;10.63;6.57;;;;;;;;;;4994491;28;20532;-73
2022/02/21 10:06:51;;;;;;;10.65;6.28;;;;;;;;;;4988296;28;20042;-73
2022/02/21 10:09:18;;;;;;;12.77;5.90;;;;;;;;;;4994062;28;20038;-75
2022/02/21 10:11:45;;;;;;;15.57;8.05;;;;;;;;;;4993985;28;20096;-74
2022/02/21 10:14:13;;;;;;;40.00;24.88;;;;;;;;;;4981369;28;20026;-75
2022/02/21 10:16:40;;;;;;;12.52;7.45;;;;;;;;;;4996309;28;20092;-73
2022/02/21 10:19:20;;;;;;;17.25;5.95;;;;;;;;;;4992707;28;20112;-74
2022/02/21 10:22:04;;;;;;;15.25;7.35;;;;;;;;;;4997830;28;20034;-73
2022/02/21 10:24:31;;;;;;;13.10;7.30;;;;;;;;;;4995133;28;20064;-73
2022/02/21 10:26:58;;;;;;;9.88;5.80;;;;;;;;;;4996433;28;20027;-73
2022/02/21 10:29:24;;;;;;;10.32;5.40;;;;;;;;;;4996497;28;20094;-73
2022/02/21 10:31:50;;;;;;;11.80;6.00;;;;;;;;;;5001946;28;20400;-73
2022/02/21 10:34:16;;;;;;;12.77;5.05;;;;;;;;;;4999968;28;20128;-73
2022/02/21 10:36:44;;;;;;;12.43;5.10;;;;;;;;;;4991058;28;20028;-73
2022/02/21 10:39:12;;;;;;;13.48;5.93;;;;;;;;;;4992569;28;20030;-72
2022/02/21 10:41:38;;;;;;;12.80;5.28;;;;;;;;;;4994577;28;20114;-73
2022/02/21 10:44:14;;;;;;;9.15;5.50;;;;;;;;;;4995748;28;20089;-73
2022/02/21 10:46:40;;;;;;;13.90;6.75;;;;;;;;;;4987671;28;20026;-75
2022/02/21 10:49:10;;;;;;;29.42;20.10;;;;;;;;;;4993900;28;20041;-74
2022/02/21 10:51:37;;;;;;;26.40;12.55;;;;;;;;;;4996486;28;20027;-73
2022/02/21 10:54:08;;;;;;;19.35;9.45;;;;;;;;;;5001005;28;20022;-73
2022/02/21 10:56:41;;;;;;;15.82;7.68;;;;;;;;;;4983726;28;20481;-74
2022/02/21 10:59:08;;;;;;;23.65;10.00;;;;;;;;;;5009311;28;20019;-74
2022/02/21 11:01:34;;;;;;;15.20;6.25;;;;;;;;;;4996604;28;20439;-74
2022/02/21 11:04:01;;;;;;;10.82;5.40;;;;;;;;;;4990334;28;20034;-73
2022/02/21 11:06:27;;;;;;;11.23;5.35;;;;;;;;;;4991793;28;20033;-75
2022/02/21 11:08:54;;;;;;;11.85;5.72;;;;;;;;;;4994233;28;20050;-74
2022/02/21 11:11:22;;;;;;;12.55;5.60;;;;;;;;;;4990667;28;20023;-74
2022/02/21 11:13:49;;;;;;;10.27;5.68;;;;;;;;;;5007259;28;20034;-73
2022/02/21 11:16:15;;;;;;;9.20;4.20;;;;;;;;;;4996039;28;20392;-74
2022/02/21 11:18:41;;;;;;;10.05;4.10;;;;;;;;;;4995220;28;20085;-72
2022/02/21 11:21:07;;;;;;;12.57;5.10;;;;;;;;;;4997284;28;20030;-74
2022/02/21 11:23:33;;;;;;;8.70;4.53;;;;;;;;;;5000579;28;20128;-74
2022/02/21 11:26:27;;;;;;;11.15;4.32;;;;;;;;;;4980028;28;20783;-73
2022/02/21 11:29:06;;;;;;;9.18;5.13;;;;;;;;;;4995174;28;20594;-75
2022/02/21 11:31:33;;;;;;;9.98;5.10;;;;;;;;;;5005729;28;20061;-74
2022/02/21 11:34:09;;;;;;;8.55;5.30;;;;;;;;;;4985655;28;20512;-74
2022/02/21 11:36:35;;;;;;;7.93;5.20;;;;;;;;;;4984987;28;20437;-73
2022/02/21 11:39:19;;;;;;;13.13;6.97;;;;;;;;;;4994396;28;20109;-74
2022/02/21 11:41:45;;;;;;;11.25;5.28;;;;;;;;;;4994971;28;20034;-77
2022/02/21 11:44:21;;;;;;;8.38;5.55;;;;;;;;;;4994058;28;20034;-75
2022/02/21 11:46:47;;;;;;;14.07;7.43;;;;;;;;;;4999631;28;20050;-74
2022/02/21 11:49:27;;;;;;;12.77;7.47;;;;;;;;;;4989754;28;20085;-74
2022/02/21 11:51:53;;;;;;;13.65;5.97;;;;;;;;;;4976028;28;20492;-75
2022/02/21 11:54:19;;;;;;;11.82;5.45;;;;;;;;;;4995336;28;20038;-74
2022/02/21 11:56:48;;;;;;;9.20;4.45;;;;;;;;;;4999122;28;20033;-74
2022/02/21 11:59:24;;;;;;;9.63;4.28;;;;;;;;;;4980301;28;20448;-77
2022/02/21 12:02:00;;;;;;;10.90;4.20;;;;;;;;;;4982729;28;20258;-74
2022/02/21 12:04:26;;;;;;;9.75;4.50;;;;;;;;;;4993302;28;20053;-75
2022/02/21 12:07:00;;;;;;;9.05;4.25;;;;;;;;;;4989206;28;20161;-74
2022/02/21 12:09:26;;;;;;;7.68;3.78;;;;;;;;;;4998239;28;20515;-74
2022/02/21 12:11:53;;;;;;;11.57;4.43;;;;;;;;;;4997369;28;20073;-75
2022/02/21 12:14:20;;;;;;;8.93;3.75;;;;;;;;;;5000293;28;20472;-73
2022/02/21 12:16:58;;;;;;;11.77;7.72;;;;;;;;;;5007415;28;20039;-75
2022/02/21 12:19:32;;;;;;;8.32;4.05;;;;;;;;;;5003848;28;20058;-76
2022/02/21 12:22:12;;;;;;;8.40;4.13;;;;;;;;;;5012451;28;20091;-76
2022/02/21 12:24:57;;;;;;;10.82;5.95;;;;;;;;;;5014257;28;20085;-74
2022/02/21 12:27:25;;;;;;;10.57;8.50;;;;;;;;;;5009916;28;20053;-76
2022/02/21 12:29:51;;;;;;;9.52;4.97;;;;;;;;;;5001329;28;20121;-75
2022/02/21 12:32:26;;;;;;;7.72;4.20;;;;;;;;;;4993935;28;20026;-75
2022/02/21 12:34:52;;;;;;;11.65;4.00;;;;;;;;;;4992307;28;20054;-77
2022/02/21 12:37:18;;;;;;;7.93;4.78;;;;;;;;;;4983980;28;20408;-78
2022/02/21 12:39:46;;;;;;;6.55;4.43;;;;;;;;;;5002452;28;20037;-73
2022/02/21 12:42:13;;;;;;;6.97;3.70;;;;;;;;;;4983666;28;20045;-76
2022/02/21 12:44:45;;;;;;;7.82;3.85;;;;;;;;;;4990769;28;20027;-77
2022/02/21 12:47:11;;;;;;;9.40;3.90;;;;;;;;;;5000783;28;20072;-75
2022/02/21 12:49:45;;;;;;;8.55;4.05;;;;;;;;;;4983360;28;20069;-77
2022/02/21 12:52:13;;;;;;;7.90;3.85;;;;;;;;;;5004509;28;20069;-75
2022/02/21 12:54:50;;;;;;;7.57;3.75;;;;;;;;;;4998565;28;20088;-75
2022/02/21 12:57:17;;;;;;;7.50;3.92;;;;;;;;;;5013928;28;20130;-77
2022/02/21 12:59:53;;;;;;;13.38;4.00;;;;;;;;;;4995858;28;20034;-80
2022/02/21 13:02:31;;;;;;;9.38;4.07;;;;;;;;;;4964823;28;20035;-76
2022/02/21 13:05:04;;;;;;;8.07;3.60;;;;;;;;;;4991669;28;20026;-76
2022/02/21 13:07:33;;;;;;;9.65;4.28;;;;;;;;;;4941891;29;20540;-78
2022/02/21 13:10:08;;;;;;;10.43;4.20;;;;;;;;;;4956766;29;20035;-73
2022/02/21 13:12:34;;;;;;;7.40;4.15;;;;;;;;;;4956233;28;20038;-76
2022/02/21 13:15:00;;;;;;;7.70;3.90;;;;;;;;;;4958768;29;20031;-74
2022/02/21 13:23:06;;;;;;;8.77;3.70;;;;;;;;;;5571487;23;20065;-76
2022/02/21 13:25:32;;;;;;;11.02;4.13;;;;;;;;;;4966312;28;20038;-74
2022/02/21 13:28:23;;;;;;;11.40;4.28;;;;;;;;;;4997923;28;20023;-76
2022/02/21 13:31:08;;;;;;;9.50;3.95;;;;;;;;;;5002319;28;20053;-75
2022/02/21 13:33:43;;;;;;;6.10;3.95;;;;;;;;;;4998854;28;20090;-76
2022/02/21 13:36:32;;;;;;;7.75;3.90;;;;;;;;;;4996459;28;20027;-76
2022/02/21 13:39:01;;;;;;;8.40;3.75;;;;;;;;;;4985714;28;20038;-77
2022/02/21 13:41:29;;;;;;;7.75;3.78;;;;;;;;;;4997897;28;20421;-76
2022/02/21 13:43:55;;;;;;;6.88;4.25;;;;;;;;;;4983317;28;20535;-75
2022/02/21 13:46:40;;;;;;;7.95;4.00;;;;;;;;;;4999598;28;20118;-78
2022/02/21 13:49:10;;;;;;;8.43;3.60;;;;;;;;;;4975440;28;20031;-74
2022/02/21 13:51:36;;;;;;;5.97;3.45;;;;;;;;;;4986780;28;20041;-74
2022/02/21 13:54:02;;;;;;;10.85;3.72;;;;;;;;;;4989790;28;20014;-71
2022/02/21 13:56:29;;;;;;;11.35;4.20;;;;;;;;;;4991600;28;20085;-75
2022/02/21 13:58:55;;;;;;;7.07;3.53;;;;;;;;;;4998704;28;20049;-72
2022/02/21 14:01:27;;;;;;;8.65;3.65;;;;;;;;;;4990810;28;20030;-72
2022/02/21 14:03:53;;;;;;;11.68;4.30;;;;;;;;;;4998800;28;20030;-73
2022/02/21 14:06:28;;;;;;;10.88;4.50;;;;;;;;;;4998008;28;20030;-75
2022/02/21 14:08:55;;;;;;;9.48;4.38;;;;;;;;;;4984437;28;20176;-74
2022/02/21 14:11:21;;;;;;;10.90;5.40;;;;;;;;;;4982971;28;20029;-71
2022/02/21 14:13:48;;;;;;;11.00;5.97;;;;;;;;;;4968846;28;20139;-76
2022/02/21 14:16:14;;;;;;;9.70;4.70;;;;;;;;;;4988923;28;20109;-76
2022/02/21 14:18:40;;;;;;;11.05;5.30;;;;;;;;;;4981756;28;20019;-71
2022/02/21 14:21:07;;;;;;;10.43;6.00;;;;;;;;;;4989773;28;20026;-71
2022/02/21 14:23:33;;;;;;;16.13;5.82;;;;;;;;;;4983504;28;20057;-72
2022/02/21 14:26:00;;;;;;;11.70;5.50;;;;;;;;;;4991138;28;20143;-73
2022/02/21 14:28:26;;;;;;;11.13;4.53;;;;;;;;;;4986050;28;20054;-74
2022/02/21 14:30:52;;;;;;;12.68;5.18;;;;;;;;;;4993564;28;20384;-75
2022/02/21 14:33:19;;;;;;;11.82;4.43;;;;;;;;;;4969793;28;20046;-75
2022/02/21 14:35:45;;;;;;;10.35;4.90;;;;;;;;;;4987671;28;20097;-73
2022/02/21 14:38:12;;;;;;;11.80;4.68;;;;;;;;;;4997733;28;20033;-75
2022/02/21 14:40:39;;;;;;;20.85;6.95;;;;;;;;;;5001636;28;20034;-78